createdAt,value
2023-01-05T00:00:02.306Z,10.20
2023-01-05T00:02:48.331Z,10.20
2023-01-05T00:05:24.718Z,10.20
2023-01-05T00:07:59.101Z,10.30
2023-01-05T00:10:46.907Z,10.30
2023-01-05T00:13:37.104Z,10.30
2023-01-05T00:16:30.181Z,10.30
2023-01-05T00:19:18.720Z,10.40
2023-01-05T00:22:05.165Z,10.40
2023-01-05T00:24:39.686Z,10.40
2023-01-05T00:27:14.162Z,10.40
2023-01-05T00:29:49.360Z,10.40
2023-01-05T00:32:27.883Z,10.50
2023-01-05T00:35:02.355Z,10.40
2023-01-05T00:37:39.867Z,10.40
2023-01-05T00:40:18.263Z,10.50
2023-01-05T00:42:52.565Z,10.50
2023-01-05T00:45:27.183Z,10.50
2023-01-05T00:48:04.766Z,10.50
2023-01-05T00:50:40.124Z,10.60
2023-01-05T00:53:16.037Z,10.60
2023-01-05T00:56:00.177Z,10.60
2023-01-05T00:58:36.003Z,10.60
2023-01-05T01:01:14.341Z,10.60
2023-01-05T01:03:51.757Z,10.60
2023-01-05T01:06:27.036Z,10.70
2023-01-05T01:09:02.972Z,10.70
2023-01-05T01:11:38.797Z,10.70
2023-01-05T01:14:15.071Z,10.80
2023-01-05T01:16:50.977Z,10.80
2023-01-05T01:19:30.286Z,10.80
2023-01-05T01:22:05.081Z,10.80
2023-01-05T01:24:41.407Z,10.90
2023-01-05T01:27:16.782Z,10.90
2023-01-05T01:29:54.370Z,10.90
2023-01-05T01:32:31.398Z,11.00
2023-01-05T01:35:10.569Z,11.00
2023-01-05T01:37:46.446Z,11.00
2023-01-05T01:40:22.567Z,11.00
2023-01-05T01:42:59.184Z,11.00
2023-01-05T01:45:34.358Z,11.00
2023-01-05T01:48:10.680Z,11.00
2023-01-05T01:50:48.933Z,11.00
2023-01-05T01:53:27.028Z,11.00
2023-01-05T01:56:03.172Z,11.00
2023-01-05T01:58:38.858Z,11.00
2023-01-05T02:01:13.675Z,11.00
2023-01-05T02:03:50.928Z,11.00
2023-01-05T02:06:28.365Z,11.00
2023-01-05T02:09:05.140Z,11.00
2023-01-05T02:11:45.433Z,10.90
2023-01-05T02:14:28.306Z,10.80
2023-01-05T02:17:09.568Z,10.80
2023-01-05T02:20:14.160Z,10.70
2023-01-05T02:23:18.941Z,10.60
2023-01-05T02:26:25.031Z,10.60
2023-01-05T02:28:59.169Z,10.60
2023-01-05T02:31:38.134Z,10.50
2023-01-05T02:34:17.461Z,10.40
2023-01-05T02:36:54.892Z,10.40
2023-01-05T02:39:34.222Z,10.40
2023-01-05T02:42:13.793Z,10.40
2023-01-05T02:44:51.499Z,10.30
2023-01-05T02:47:56.722Z,10.30
2023-01-05T02:50:33.462Z,10.30
2023-01-05T02:53:13.234Z,10.30
2023-01-05T02:55:49.931Z,10.30
2023-01-05T02:58:27.448Z,10.30
2023-01-05T03:01:06.141Z,10.20
2023-01-05T03:03:45.875Z,10.20
2023-01-05T03:06:25.226Z,10.20
2023-01-05T03:09:02.233Z,10.20
2023-01-05T03:11:53.629Z,10.10
2023-01-05T03:14:32.393Z,10.10
2023-01-05T03:17:09.153Z,10.00
2023-01-05T03:19:52.131Z,9.90
2023-01-05T03:22:41.773Z,9.90
2023-01-05T03:25:30.030Z,9.80
2023-01-05T03:28:20.237Z,9.70
2023-01-05T03:31:11.708Z,9.70
2023-01-05T03:34:00.712Z,9.70
2023-01-05T03:36:44.981Z,9.60
2023-01-05T03:39:26.754Z,9.60
2023-01-05T03:42:04.083Z,9.60
2023-01-05T03:44:39.733Z,9.60
2023-01-05T03:47:17.292Z,9.60
2023-01-05T03:49:53.417Z,9.50
2023-01-05T03:52:29.121Z,9.50
2023-01-05T03:55:04.675Z,9.40
2023-01-05T03:57:39.931Z,9.30
2023-01-05T04:00:20.854Z,9.10
2023-01-05T04:03:05.146Z,8.90
2023-01-05T04:05:40.659Z,8.80
2023-01-05T04:08:18.879Z,8.70
2023-01-05T04:10:56.642Z,8.60
2023-01-05T04:13:31.177Z,8.50
2023-01-05T04:16:07.609Z,8.50
2023-01-05T04:18:45.256Z,8.50
2023-01-05T04:21:22.577Z,8.50
2023-01-05T04:24:03.745Z,8.50
2023-01-05T04:26:43.000Z,8.50
2023-01-05T04:29:19.387Z,8.50
2023-01-05T04:31:57.156Z,8.50
2023-01-05T04:34:35.671Z,8.60
2023-01-05T04:37:12.153Z,8.50
2023-01-05T04:39:52.734Z,8.60
2023-01-05T04:42:28.187Z,8.60
2023-01-05T04:45:03.532Z,8.60
2023-01-05T04:47:43.559Z,8.60
2023-01-05T04:50:20.300Z,8.60
2023-01-05T04:52:56.868Z,8.70
2023-01-05T04:55:34.334Z,8.70
2023-01-05T04:58:12.137Z,8.80
2023-01-05T05:00:51.695Z,8.80
2023-01-05T05:03:32.729Z,8.80
2023-01-05T05:06:06.787Z,8.90
2023-01-05T05:08:46.018Z,8.90
2023-01-05T05:11:24.411Z,8.90
2023-01-05T05:14:01.345Z,8.90
2023-01-05T05:16:34.111Z,8.90
2023-01-05T05:19:09.435Z,8.80
2023-01-05T05:21:45.414Z,8.90
2023-01-05T05:24:21.083Z,8.80
2023-01-05T05:27:00.607Z,8.80
2023-01-05T05:29:35.853Z,8.80
2023-01-05T05:32:10.644Z,8.80
2023-01-05T05:34:46.418Z,8.70
2023-01-05T05:37:22.390Z,8.70
2023-01-05T05:39:57.403Z,8.70
2023-01-05T05:42:35.432Z,8.70
2023-01-05T05:45:15.374Z,8.60
2023-01-05T05:47:51.334Z,8.60
2023-01-05T05:50:28.870Z,8.60
2023-01-05T05:53:04.311Z,8.60
2023-01-05T05:55:39.899Z,8.60
2023-01-05T05:58:17.614Z,8.60
2023-01-05T06:00:52.251Z,8.60
2023-01-05T06:03:28.568Z,8.50
2023-01-05T06:06:05.289Z,8.60
2023-01-05T06:08:40.839Z,8.60
2023-01-05T06:11:20.604Z,8.50
2023-01-05T06:13:58.209Z,8.60
2023-01-05T06:16:36.052Z,8.60
2023-01-05T06:19:12.387Z,8.60
2023-01-05T06:21:47.866Z,8.60
2023-01-05T06:24:24.107Z,8.60
2023-01-05T06:26:59.328Z,8.60
2023-01-05T06:29:38.370Z,8.60
2023-01-05T06:32:14.341Z,8.60
2023-01-05T06:34:50.492Z,8.50
2023-01-05T06:37:38.235Z,8.50
2023-01-05T06:40:14.830Z,8.60
2023-01-05T06:42:49.777Z,8.50
2023-01-05T06:45:29.280Z,8.60
2023-01-05T06:48:03.414Z,8.60
2023-01-05T06:50:39.274Z,8.50
2023-01-05T06:53:14.788Z,8.60
2023-01-05T06:55:49.970Z,8.50
2023-01-05T06:58:25.329Z,8.60
2023-01-05T07:01:04.335Z,8.60
2023-01-05T07:03:39.702Z,8.60
2023-01-05T07:06:15.068Z,8.60
2023-01-05T07:08:50.937Z,8.60
2023-01-05T07:11:32.306Z,8.70
2023-01-05T07:14:07.668Z,8.70
2023-01-05T07:16:45.328Z,8.70
2023-01-05T07:19:24.742Z,8.70
2023-01-05T07:22:00.331Z,8.70
2023-01-05T07:24:35.614Z,8.80
2023-01-05T07:27:11.389Z,8.70
2023-01-05T07:29:47.369Z,8.80
2023-01-05T07:32:26.213Z,8.80
2023-01-05T07:35:03.749Z,8.80
2023-01-05T07:37:39.121Z,8.90
2023-01-05T07:40:15.448Z,8.90
2023-01-05T07:42:54.384Z,9.00
2023-01-05T07:45:31.237Z,9.10
2023-01-05T07:48:10.228Z,9.10
2023-01-05T07:50:45.411Z,9.10
2023-01-05T07:53:21.619Z,9.20
2023-01-05T07:56:01.376Z,9.20
2023-01-05T07:58:36.821Z,9.30
2023-01-05T08:01:12.305Z,9.30
2023-01-05T08:03:52.501Z,9.30
2023-01-05T08:06:28.451Z,9.30
2023-01-05T08:09:23.821Z,9.40
2023-01-05T08:11:59.485Z,9.40
2023-01-05T08:14:34.875Z,9.40
2023-01-05T08:17:10.392Z,9.40
2023-01-05T08:19:48.548Z,9.50
2023-01-05T08:22:24.485Z,9.50
2023-01-05T08:25:00.278Z,9.50
2023-01-05T08:27:36.271Z,9.60
2023-01-05T08:30:12.370Z,9.60
2023-01-05T08:32:49.587Z,9.60
2023-01-05T08:35:30.215Z,9.60
2023-01-05T08:38:05.916Z,9.60
2023-01-05T08:40:43.120Z,9.60
2023-01-05T08:43:17.418Z,9.80
2023-01-05T08:45:53.738Z,9.80
2023-01-05T08:48:32.762Z,9.80
2023-01-05T08:51:10.604Z,9.90
2023-01-05T08:53:46.125Z,9.80
2023-01-05T08:56:22.663Z,9.90
2023-01-05T08:58:59.558Z,9.80
2023-01-05T09:01:35.012Z,9.80
2023-01-05T09:04:11.283Z,9.90
2023-01-05T09:06:49.899Z,9.90
2023-01-05T09:09:25.526Z,9.90
2023-01-05T09:12:01.887Z,9.90
2023-01-05T09:14:36.778Z,9.90
2023-01-05T09:17:12.610Z,9.90
2023-01-05T09:19:48.115Z,9.80
2023-01-05T09:22:27.359Z,9.90
2023-01-05T09:25:04.777Z,9.80
2023-01-05T09:27:42.599Z,9.80
2023-01-05T09:30:20.091Z,9.80
2023-01-05T09:32:57.469Z,9.70
2023-01-05T09:35:33.692Z,9.70
2023-01-05T09:38:11.060Z,9.60
2023-01-05T09:40:48.336Z,9.50
2023-01-05T09:43:26.645Z,9.50
2023-01-05T09:46:02.200Z,9.40
2023-01-05T09:48:40.175Z,9.40
2023-01-05T09:51:18.562Z,9.40
2023-01-05T09:53:57.450Z,9.40
2023-01-05T09:57:08.100Z,9.40
2023-01-05T09:59:29.039Z,9.40
2023-01-05T10:02:04.685Z,9.40
2023-01-05T10:04:40.551Z,9.30
2023-01-05T10:07:22.180Z,9.40
2023-01-05T10:10:02.418Z,9.40
2023-01-05T10:12:52.583Z,9.40
2023-01-05T10:15:28.755Z,9.40
2023-01-05T10:18:03.401Z,9.40
2023-01-05T10:20:47.811Z,9.40
2023-01-05T10:23:48.164Z,9.40
2023-01-05T10:26:28.440Z,9.40
2023-01-05T10:29:05.839Z,9.40
2023-01-05T10:31:50.347Z,9.40
2023-01-05T10:34:25.118Z,9.30
2023-01-05T10:37:12.475Z,9.30
2023-01-05T10:40:06.452Z,9.10
2023-01-05T10:43:18.924Z,8.90
2023-01-05T10:46:28.723Z,8.50
2023-01-05T10:48:48.385Z,8.30
2023-01-05T10:51:24.388Z,8.10
2023-01-05T10:54:00.345Z,7.90
2023-01-05T10:56:35.968Z,7.80
2023-01-05T10:59:15.618Z,7.80
2023-01-05T11:01:51.237Z,7.70
2023-01-05T11:04:34.384Z,7.70
2023-01-05T11:07:14.391Z,7.60
2023-01-05T11:09:50.840Z,7.60
2023-01-05T11:12:27.677Z,7.60
2023-01-05T11:15:05.543Z,7.50
2023-01-05T11:17:40.449Z,7.50
2023-01-05T11:20:19.771Z,7.50
2023-01-05T11:22:53.596Z,7.50
2023-01-05T11:25:32.664Z,7.50
2023-01-05T11:28:15.176Z,7.50
2023-01-05T11:31:02.171Z,7.60
2023-01-05T11:33:41.989Z,7.50
2023-01-05T11:36:18.078Z,7.60
2023-01-05T11:38:54.201Z,7.60
2023-01-05T11:41:29.971Z,7.60
2023-01-05T11:44:06.059Z,7.60
2023-01-05T11:46:47.756Z,7.60
2023-01-05T11:49:22.913Z,7.70
2023-01-05T11:51:56.561Z,7.70
2023-01-05T11:54:39.682Z,7.80
2023-01-05T11:57:19.311Z,7.80
2023-01-05T11:59:56.027Z,7.80
2023-01-05T12:02:53.126Z,7.80
2023-01-05T12:05:32.236Z,7.80
2023-01-05T12:08:07.697Z,7.80
2023-01-05T12:10:51.832Z,7.90
2023-01-05T12:14:04.140Z,7.90
2023-01-05T12:16:38.553Z,8.00
2023-01-05T12:19:23.428Z,8.10
2023-01-05T12:22:05.142Z,8.10
2023-01-05T12:24:49.191Z,8.20
2023-01-05T12:27:31.927Z,8.20
2023-01-05T12:34:06.064Z,8.20
2023-01-05T12:36:40.150Z,8.20
2023-01-05T12:39:40.722Z,8.30
2023-01-05T12:42:25.147Z,8.30
2023-01-05T12:45:25.439Z,8.40
2023-01-05T12:48:06.434Z,8.50
2023-01-05T12:50:43.388Z,8.60
2023-01-05T12:53:25.669Z,8.60
2023-01-05T12:56:07.180Z,8.70
2023-01-05T12:58:46.775Z,8.70
2023-01-05T13:01:26.975Z,8.70
2023-01-05T13:04:03.630Z,8.70
2023-01-05T13:06:41.071Z,8.70
2023-01-05T13:09:17.321Z,8.70
2023-01-05T13:11:56.906Z,8.70
2023-01-05T13:14:32.409Z,8.70
2023-01-05T13:17:08.782Z,8.70
2023-01-05T13:19:47.206Z,8.80
2023-01-05T13:22:27.354Z,8.80
2023-01-05T13:25:03.982Z,8.90
2023-01-05T13:27:43.363Z,8.90
2023-01-05T13:30:24.987Z,9.00
2023-01-05T13:33:17.748Z,9.00
2023-01-05T13:35:59.064Z,9.10
2023-01-05T13:39:07.848Z,9.10
2023-01-05T13:42:09.906Z,9.10
2023-01-05T13:45:13.760Z,9.10
2023-01-05T13:47:45.930Z,9.20
2023-01-05T13:50:50.744Z,9.20
2023-01-05T13:53:26.639Z,9.20
2023-01-05T13:56:00.769Z,9.20
2023-01-05T13:58:39.489Z,9.20
2023-01-05T14:01:16.956Z,9.20
2023-01-05T14:03:53.519Z,9.20
2023-01-05T14:06:33.183Z,9.20
2023-01-05T14:09:13.256Z,9.20
2023-01-05T14:12:24.250Z,9.10
2023-01-05T14:15:09.678Z,9.10
2023-01-05T14:17:55.802Z,9.10
2023-01-05T14:20:56.378Z,9.10
2023-01-05T14:23:59.317Z,9.00
2023-01-05T14:27:04.842Z,8.90
2023-01-05T14:30:06.324Z,8.90
2023-01-05T14:32:45.181Z,8.90
2023-01-05T14:35:26.239Z,8.90
2023-01-05T14:38:03.772Z,8.90
2023-01-05T14:40:49.409Z,8.80
2023-01-05T14:43:40.264Z,8.80
2023-01-05T14:46:16.249Z,8.80
2023-01-05T14:49:03.540Z,8.80
2023-01-05T14:51:39.751Z,8.70
2023-01-05T14:54:16.209Z,8.70
2023-01-05T14:57:24.809Z,8.70
2023-01-05T15:00:03.639Z,8.70
2023-01-05T15:02:41.089Z,8.70
2023-01-05T15:05:18.888Z,8.70
2023-01-05T15:11:09.453Z,8.70
2023-01-05T15:14:17.584Z,8.70
2023-01-05T15:17:15.768Z,8.70
2023-01-05T15:20:04.500Z,8.60
2023-01-05T15:22:51.262Z,8.60
2023-01-05T15:26:03.462Z,8.60
2023-01-05T15:29:03.071Z,8.60
2023-01-05T15:31:48.879Z,8.60
2023-01-05T15:34:26.885Z,8.60
2023-01-05T15:37:04.150Z,8.50
2023-01-05T15:39:51.193Z,8.50
2023-01-05T15:42:28.361Z,8.60
2023-01-05T15:45:03.485Z,8.50
2023-01-05T15:47:41.991Z,8.50
2023-01-05T15:50:21.170Z,8.50
2023-01-05T15:52:59.266Z,8.50
2023-01-05T15:55:34.454Z,8.50
2023-01-05T15:58:18.780Z,8.50
2023-01-05T16:01:07.490Z,8.50
2023-01-05T16:03:47.612Z,8.50
2023-01-05T16:06:25.360Z,8.50
2023-01-05T16:09:06.468Z,8.50
2023-01-05T16:11:43.242Z,8.40
2023-01-05T16:14:21.356Z,8.40
2023-01-05T16:16:54.150Z,8.40
2023-01-05T16:19:35.870Z,8.40
2023-01-05T16:22:15.800Z,8.50
2023-01-05T16:24:54.972Z,8.40
2023-01-05T16:27:30.482Z,8.40
2023-01-05T16:30:19.688Z,8.40
2023-01-05T16:33:00.121Z,8.40
2023-01-05T16:35:44.166Z,8.40
2023-01-05T16:38:38.213Z,8.40
2023-01-05T16:41:26.631Z,8.40
2023-01-05T16:44:02.603Z,8.40
2023-01-05T16:46:42.706Z,8.40
2023-01-05T16:49:43.417Z,8.30
2023-01-05T16:52:24.371Z,8.30
2023-01-05T16:55:32.871Z,8.30
2023-01-05T16:58:07.246Z,8.20
2023-01-05T17:00:43.127Z,8.20
2023-01-05T17:03:37.470Z,8.20
2023-01-05T17:06:16.618Z,8.20
2023-01-05T17:08:53.612Z,8.20
2023-01-05T17:11:33.965Z,8.20
2023-01-05T17:14:09.899Z,8.20
2023-01-05T17:16:46.494Z,8.20
2023-01-05T17:19:24.698Z,8.20
2023-01-05T17:22:00.999Z,8.20
2023-01-05T17:24:35.948Z,8.10
2023-01-05T17:27:14.162Z,8.10
2023-01-05T17:29:53.333Z,8.10
2023-01-05T17:32:31.903Z,8.20
2023-01-05T17:35:09.436Z,8.20
2023-01-05T17:37:45.301Z,8.20
2023-01-05T17:40:24.613Z,8.20
2023-01-05T17:43:05.383Z,8.20
2023-01-05T17:45:41.991Z,8.20
2023-01-05T17:48:17.799Z,8.20
2023-01-05T17:50:55.507Z,8.10
2023-01-05T17:53:35.018Z,8.10
2023-01-05T17:56:13.551Z,8.10
2023-01-05T17:58:52.950Z,8.10
2023-01-05T18:01:29.224Z,8.00
2023-01-05T18:04:03.639Z,8.00
2023-01-05T18:06:42.679Z,8.00
2023-01-05T18:09:19.454Z,8.00
2023-01-05T18:11:55.572Z,7.90
2023-01-05T18:14:35.764Z,7.90
2023-01-05T18:17:11.691Z,7.90
2023-01-05T18:19:46.592Z,7.90
2023-01-05T18:22:22.325Z,8.00
2023-01-05T18:24:58.127Z,7.90
2023-01-05T18:27:38.158Z,7.90
2023-01-05T18:30:18.298Z,7.90
2023-01-05T18:32:54.765Z,7.90
2023-01-05T18:35:30.963Z,7.90
2023-01-05T18:38:07.151Z,7.90
2023-01-05T18:40:42.756Z,7.90
2023-01-05T18:43:17.794Z,7.80
2023-01-05T18:46:03.033Z,7.70
2023-01-05T18:48:38.306Z,7.60
2023-01-05T18:51:14.705Z,7.60
2023-01-05T18:53:50.991Z,7.50
2023-01-05T18:56:26.227Z,7.40
2023-01-05T18:59:02.195Z,7.40
2023-01-05T19:01:43.431Z,7.30
2023-01-05T19:04:19.610Z,7.20
2023-01-05T19:06:59.291Z,7.20
2023-01-05T19:09:41.066Z,7.20
2023-01-05T19:12:16.068Z,7.10
2023-01-05T19:14:51.081Z,7.00
2023-01-05T19:17:34.511Z,7.00
2023-01-05T19:20:11.609Z,6.90
2023-01-05T19:22:48.790Z,6.90
2023-01-05T19:25:26.268Z,6.80
2023-01-05T19:28:02.718Z,6.80
2023-01-05T19:30:40.490Z,6.70
2023-01-05T19:33:21.783Z,6.70
2023-01-05T19:36:04.038Z,6.70
2023-01-05T19:38:40.018Z,6.60
2023-01-05T19:41:16.969Z,6.60
2023-01-05T19:43:53.017Z,6.60
2023-01-05T19:46:31.226Z,6.50
2023-01-05T19:49:11.290Z,6.50
2023-01-05T19:51:50.198Z,6.40
2023-01-05T19:54:27.252Z,6.40
2023-01-05T19:57:03.708Z,6.30
2023-01-05T19:59:40.641Z,6.30
2023-01-05T20:02:18.802Z,6.30
2023-01-05T20:04:56.830Z,6.30
2023-01-05T20:07:31.423Z,6.30
2023-01-05T20:10:11.157Z,6.20
2023-01-05T20:12:49.744Z,6.20
2023-01-05T20:15:26.873Z,6.20
2023-01-05T20:18:06.091Z,6.30
2023-01-05T20:20:49.078Z,6.30
2023-01-05T20:23:27.209Z,6.30
2023-01-05T20:26:11.639Z,6.30
2023-01-05T20:28:48.979Z,6.30
2023-01-05T20:31:27.123Z,6.30
2023-01-05T20:33:58.379Z,6.30
2023-01-05T20:36:39.851Z,6.30
2023-01-05T20:39:18.974Z,6.20
2023-01-05T20:42:05.216Z,6.20
2023-01-05T20:44:45.130Z,6.20
2023-01-05T20:47:21.773Z,6.20
2023-01-05T20:50:02.016Z,6.20
2023-01-05T20:52:42.296Z,6.20
2023-01-05T20:55:19.423Z,6.20
2023-01-05T20:57:59.410Z,6.20
2023-01-05T21:00:33.910Z,6.10
2023-01-05T21:03:11.029Z,6.10
2023-01-05T21:05:45.598Z,6.10
2023-01-05T21:08:24.138Z,6.10
2023-01-05T21:10:59.053Z,6.10
2023-01-05T21:13:35.780Z,6.10
2023-01-05T21:16:16.918Z,6.10
2023-01-05T21:18:52.434Z,6.10
2023-01-05T21:21:29.566Z,6.10
2023-01-05T21:24:11.431Z,6.00
2023-01-05T21:26:47.712Z,6.00
2023-01-05T21:29:23.558Z,6.00
2023-01-05T21:31:58.960Z,6.00
2023-01-05T21:34:38.290Z,6.00
2023-01-05T21:37:15.631Z,5.90
2023-01-05T21:39:55.503Z,5.90
2023-01-05T21:42:45.652Z,5.90
2023-01-05T21:45:19.677Z,5.90
2023-01-05T21:47:58.943Z,5.80
2023-01-05T21:50:47.142Z,5.80
2023-01-05T21:53:35.731Z,5.70
2023-01-05T21:56:30.258Z,5.60
2023-01-05T21:59:07.592Z,5.60
2023-01-05T22:01:42.751Z,5.50
2023-01-05T22:04:19.126Z,5.50
2023-01-05T22:06:52.656Z,5.50
2023-01-05T22:09:28.799Z,5.40
2023-01-05T22:12:07.634Z,5.40
2023-01-05T22:14:43.410Z,5.40
2023-01-05T22:17:20.079Z,5.30
2023-01-05T22:19:58.798Z,5.30
2023-01-05T22:22:33.831Z,5.20
2023-01-05T22:25:06.778Z,5.20
2023-01-05T22:27:44.795Z,5.10
2023-01-05T22:30:20.524Z,5.10
2023-01-05T22:32:56.588Z,5.10
2023-01-05T22:35:31.767Z,5.10
2023-01-05T22:38:06.992Z,5.10
2023-01-05T22:40:42.515Z,5.10
2023-01-05T22:43:20.996Z,5.10
2023-01-05T22:45:57.277Z,5.10
2023-01-05T22:48:35.705Z,5.10
2023-01-05T22:51:11.949Z,5.10
2023-01-05T22:53:50.141Z,5.10
2023-01-05T22:56:26.207Z,5.10
2023-01-05T22:59:03.619Z,5.10
2023-01-05T23:01:39.614Z,5.10
2023-01-05T23:04:15.027Z,5.10
2023-01-05T23:06:50.657Z,5.00
2023-01-05T23:09:26.236Z,5.00
2023-01-05T23:12:01.859Z,5.00
2023-01-05T23:14:39.672Z,5.00
2023-01-05T23:17:15.856Z,4.90
2023-01-05T23:19:52.583Z,5.00
2023-01-05T23:22:28.075Z,5.00
2023-01-05T23:25:03.824Z,5.00
2023-01-05T23:27:38.425Z,5.00
2023-01-05T23:30:18.081Z,4.90
2023-01-05T23:32:54.308Z,5.00
2023-01-05T23:35:29.917Z,5.00
2023-01-05T23:38:05.300Z,5.00
2023-01-05T23:40:44.852Z,5.00
2023-01-05T23:43:22.643Z,5.00
2023-01-05T23:46:02.916Z,4.90
2023-01-05T23:48:39.163Z,4.90
2023-01-05T23:51:10.227Z,5.00
2023-01-05T23:53:45.016Z,4.90
2023-01-05T23:56:22.208Z,4.90
2023-01-05T23:58:59.998Z,4.90
